Kezdőlap
METAR-TAF:

METAR-TAF

Repülőterek :

Curaçao, Holland Antillák

földrajzi szélesség: 12-12N, földrajzi hosszúság: 068-58W, magasság: 9 m

Jelenlegi meteorológiai megfigyelések

A jelentés 40 perccel ezelõtt készült, 10:00 UTC
Kelet-délkeleti szél 9 kt
Hőmérséklet 27°C
Páratartalom 79%
Légköri nyomás 1014 hPa
Látótávolság 10 km, vagy több
Kevés felhő 1900 lábon

METAR: TNCC 161000Z 12009KT 9999 FEW019 27/23 Q1014 NOSIG

Idő: 06:40 (10:40 UTC)

Előrejelzés

A jelentés 7 órával és 40 perccel ezelõtt készült, 03:00 UTC
Az előrejelzés 16-én 06 óra UTC és 17-én 06 óra UTC között érvényes
Keleti szél 12 kt
Látótávolság 10 km, vagy több
Szórványos felhőzet 2000 lábon
Valószínűség 40% :
16-én 08 óra UTC és 16-én 15 óra UTC között ideiglenes
Keleti szél 18 kt
Látótávolság: 5000 m
záporok

TAF: TNCC 160300Z 1606/1706 09012KT 9999 SCT020 PROB40 TEMPO 1608/1615 5000 SHRA BECMG1616/1617 10018KT

Meteorológiai megfigyelések és előrejelzések több, mint 4000 repülőtéren (METAR és TAF jelentéseket).

A térképen piros és sárga pontok jelzik az elérhető meteorológiai állomásokat.

Mozgassa az egeret a pont fölött, hogy megjelenjen az állomás neve.

Azután kattintson az időjárási megfigyelések és előrejelzések megtekintéséhez.

A térkép megváltoztatása: kattintson a fekete keresztel jelölt zöld gombra ráközelítéshez, a vonallal jelölt zöld gombra távolításhoz, vagy a zöld nyilakra a szomszédos térképek eléréséhez.


METAR-TAF: